sensor_id;sensor_type;location;lat;lon;timestamp;temperature;humidity
17341;DHT22;8788;49.930;8.660;2024-01-10T00:02:08;-3.20;83.20
17341;DHT22;8788;49.930;8.660;2024-01-10T00:04:35;-3.30;83.40
17341;DHT22;8788;49.930;8.660;2024-01-10T00:07:02;-3.20;83.60
17341;DHT22;8788;49.930;8.660;2024-01-10T00:09:30;-3.20;83.80
17341;DHT22;8788;49.930;8.660;2024-01-10T00:11:57;-3.20;83.90
17341;DHT22;8788;49.930;8.660;2024-01-10T00:14:24;-3.20;83.90
17341;DHT22;8788;49.930;8.660;2024-01-10T00:16:53;-3.10;84.00
17341;DHT22;8788;49.930;8.660;2024-01-10T00:19:20;-3.20;84.00
17341;DHT22;8788;49.930;8.660;2024-01-10T00:21:47;-3.20;84.20
17341;DHT22;8788;49.930;8.660;2024-01-10T00:24:14;-3.20;84.40
17341;DHT22;8788;49.930;8.660;2024-01-10T00:26:41;-3.30;84.70
17341;DHT22;8788;49.930;8.660;2024-01-10T00:29:08;-3.30;84.90
17341;DHT22;8788;49.930;8.660;2024-01-10T00:31:35;-3.30;85.10
17341;DHT22;8788;49.930;8.660;2024-01-10T00:34:03;-3.30;85.30
17341;DHT22;8788;49.930;8.660;2024-01-10T00:36:30;-3.30;85.50
17341;DHT22;8788;49.930;8.660;2024-01-10T00:38:57;-3.30;85.60
17341;DHT22;8788;49.930;8.660;2024-01-10T00:41:24;-3.30;85.80
17341;DHT22;8788;49.930;8.660;2024-01-10T00:43:52;-3.30;85.80
17341;DHT22;8788;49.930;8.660;2024-01-10T00:46:19;-3.30;86.10
17341;DHT22;8788;49.930;8.660;2024-01-10T00:48:46;-3.30;86.20
17341;DHT22;8788;49.930;8.660;2024-01-10T00:51:14;-3.30;86.30
17341;DHT22;8788;49.930;8.660;2024-01-10T00:53:41;-3.30;86.40
17341;DHT22;8788;49.930;8.660;2024-01-10T00:56:09;-3.40;86.60
17341;DHT22;8788;49.930;8.660;2024-01-10T00:58:37;-3.40;86.90
17341;DHT22;8788;49.930;8.660;2024-01-10T01:01:04;-3.40;87.20
17341;DHT22;8788;49.930;8.660;2024-01-10T01:03:31;-3.40;87.20
17341;DHT22;8788;49.930;8.660;2024-01-10T01:05:58;-3.30;87.40
17341;DHT22;8788;49.930;8.660;2024-01-10T01:08:27;-3.40;87.50
17341;DHT22;8788;49.930;8.660;2024-01-10T01:10:54;-3.30;87.60
17341;DHT22;8788;49.930;8.660;2024-01-10T01:13:21;-3.30;87.70
17341;DHT22;8788;49.930;8.660;2024-01-10T01:15:48;-3.30;87.70
17341;DHT22;8788;49.930;8.660;2024-01-10T01:18:15;-3.30;87.70
17341;DHT22;8788;49.930;8.660;2024-01-10T01:20:42;-3.30;87.80
17341;DHT22;8788;49.930;8.660;2024-01-10T01:23:09;-3.40;88.00
17341;DHT22;8788;49.930;8.660;2024-01-10T01:25:38;-3.30;88.30
17341;DHT22;8788;49.930;8.660;2024-01-10T01:28:05;-3.40;88.40
17341;DHT22;8788;49.930;8.660;2024-01-10T01:30:32;-3.50;88.60
17341;DHT22;8788;49.930;8.660;2024-01-10T01:32:59;-3.40;89.00
17341;DHT22;8788;49.930;8.660;2024-01-10T01:35:28;-3.50;89.10
17341;DHT22;8788;49.930;8.660;2024-01-10T01:37:55;-3.50;89.30
17341;DHT22;8788;49.930;8.660;2024-01-10T01:40:22;-3.50;89.40
17341;DHT22;8788;49.930;8.660;2024-01-10T01:42:50;-3.50;89.60
17341;DHT22;8788;49.930;8.660;2024-01-10T01:45:19;-3.50;89.90
17341;DHT22;8788;49.930;8.660;2024-01-10T01:47:46;-3.50;90.00
17341;DHT22;8788;49.930;8.660;2024-01-10T01:50:13;-3.50;90.10
17341;DHT22;8788;49.930;8.660;2024-01-10T01:52:40;-3.40;90.10
17341;DHT22;8788;49.930;8.660;2024-01-10T01:55:08;-3.40;90.10
17341;DHT22;8788;49.930;8.660;2024-01-10T01:57:37;-3.40;90.20
17341;DHT22;8788;49.930;8.660;2024-01-10T02:00:07;-3.40;90.20
17341;DHT22;8788;49.930;8.660;2024-01-10T02:02:35;-3.40;90.20
17341;DHT22;8788;49.930;8.660;2024-01-10T02:05:02;-3.30;90.30
17341;DHT22;8788;49.930;8.660;2024-01-10T02:07:30;-3.30;90.30
17341;DHT22;8788;49.930;8.660;2024-01-10T02:09:57;-3.20;90.30
17341;DHT22;8788;49.930;8.660;2024-01-10T02:12:24;-3.20;90.20
17341;DHT22;8788;49.930;8.660;2024-01-10T02:14:52;-3.30;90.30
17341;DHT22;8788;49.930;8.660;2024-01-10T02:17:20;-3.40;90.40
17341;DHT22;8788;49.930;8.660;2024-01-10T02:19:47;-3.40;90.50
17341;DHT22;8788;49.930;8.660;2024-01-10T02:22:15;-3.40;90.60
17341;DHT22;8788;49.930;8.660;2024-01-10T02:24:42;-3.40;90.60
17341;DHT22;8788;49.930;8.660;2024-01-10T02:27:11;-3.40;90.60
17341;DHT22;8788;49.930;8.660;2024-01-10T02:29:38;-3.40;90.70
17341;DHT22;8788;49.930;8.660;2024-01-10T02:32:06;-3.40;90.80
17341;DHT22;8788;49.930;8.660;2024-01-10T02:34:33;-3.40;90.90
17341;DHT22;8788;49.930;8.660;2024-01-10T02:37:00;-3.50;91.00
17341;DHT22;8788;49.930;8.660;2024-01-10T02:39:27;-3.50;91.00
17341;DHT22;8788;49.930;8.660;2024-01-10T02:41:54;-3.50;91.10
17341;DHT22;8788;49.930;8.660;2024-01-10T02:44:22;-3.40;91.20
17341;DHT22;8788;49.930;8.660;2024-01-10T02:46:57;-3.50;91.30
17341;DHT22;8788;49.930;8.660;2024-01-10T02:49:25;-3.40;91.40
17341;DHT22;8788;49.930;8.660;2024-01-10T02:51:52;-3.40;91.40
17341;DHT22;8788;49.930;8.660;2024-01-10T02:54:19;-3.40;91.40
17341;DHT22;8788;49.930;8.660;2024-01-10T02:56:46;-3.40;91.50
17341;DHT22;8788;49.930;8.660;2024-01-10T02:59:13;-3.30;91.60
17341;DHT22;8788;49.930;8.660;2024-01-10T03:01:41;-3.30;91.50
17341;DHT22;8788;49.930;8.660;2024-01-10T03:04:08;-3.40;91.60
17341;DHT22;8788;49.930;8.660;2024-01-10T03:06:35;-3.40;91.60
17341;DHT22;8788;49.930;8.660;2024-01-10T03:09:02;-3.50;91.80
17341;DHT22;8788;49.930;8.660;2024-01-10T03:11:30;-3.60;91.90
17341;DHT22;8788;49.930;8.660;2024-01-10T03:14:02;-3.50;92.10
17341;DHT22;8788;49.930;8.660;2024-01-10T03:16:29;-3.40;92.20
17341;DHT22;8788;49.930;8.660;2024-01-10T03:18:58;-3.40;92.10
17341;DHT22;8788;49.930;8.660;2024-01-10T03:21:25;-3.40;92.10
17341;DHT22;8788;49.930;8.660;2024-01-10T03:23:53;-3.30;92.30
17341;DHT22;8788;49.930;8.660;2024-01-10T03:26:20;-3.30;92.20
17341;DHT22;8788;49.930;8.660;2024-01-10T03:28:47;-3.30;92.10
17341;DHT22;8788;49.930;8.660;2024-01-10T03:31:15;-3.20;92.20
17341;DHT22;8788;49.930;8.660;2024-01-10T03:33:42;-3.20;92.30
17341;DHT22;8788;49.930;8.660;2024-01-10T03:36:13;-3.10;92.60
17341;DHT22;8788;49.930;8.660;2024-01-10T03:38:40;-3.10;92.30
17341;DHT22;8788;49.930;8.660;2024-01-10T03:41:07;-3.10;92.30
17341;DHT22;8788;49.930;8.660;2024-01-10T03:43:34;-3.10;92.20
17341;DHT22;8788;49.930;8.660;2024-01-10T03:46:01;-3.10;92.30
17341;DHT22;8788;49.930;8.660;2024-01-10T03:48:28;-3.10;92.40
17341;DHT22;8788;49.930;8.660;2024-01-10T03:50:56;-3.10;92.40
17341;DHT22;8788;49.930;8.660;2024-01-10T03:53:25;-3.00;92.50
17341;DHT22;8788;49.930;8.660;2024-01-10T03:55:52;-3.00;92.40
17341;DHT22;8788;49.930;8.660;2024-01-10T03:58:19;-3.00;92.40
17341;DHT22;8788;49.930;8.660;2024-01-10T04:00:47;-3.00;92.40
17341;DHT22;8788;49.930;8.660;2024-01-10T04:03:14;-3.00;92.40
17341;DHT22;8788;49.930;8.660;2024-01-10T04:05:42;-3.00;92.30
17341;DHT22;8788;49.930;8.660;2024-01-10T04:08:09;-2.90;92.40
17341;DHT22;8788;49.930;8.660;2024-01-10T04:10:38;-2.90;92.30
17341;DHT22;8788;49.930;8.660;2024-01-10T04:13:05;-2.90;92.30
17341;DHT22;8788;49.930;8.660;2024-01-10T04:15:32;-3.00;92.40
17341;DHT22;8788;49.930;8.660;2024-01-10T04:18:00;-2.90;92.50
17341;DHT22;8788;49.930;8.660;2024-01-10T04:20:27;-2.90;92.50
17341;DHT22;8788;49.930;8.660;2024-01-10T04:22:54;-2.90;92.40
17341;DHT22;8788;49.930;8.660;2024-01-10T04:25:21;-3.00;92.40
17341;DHT22;8788;49.930;8.660;2024-01-10T04:27:50;-3.00;92.50
17341;DHT22;8788;49.930;8.660;2024-01-10T04:30:17;-3.00;92.60
17341;DHT22;8788;49.930;8.660;2024-01-10T04:32:44;-3.00;92.60
17341;DHT22;8788;49.930;8.660;2024-01-10T04:35:11;-3.10;92.60
17341;DHT22;8788;49.930;8.660;2024-01-10T04:37:38;-3.10;92.80
17341;DHT22;8788;49.930;8.660;2024-01-10T04:40:06;-3.00;92.80
17341;DHT22;8788;49.930;8.660;2024-01-10T04:42:33;-3.00;92.80
17341;DHT22;8788;49.930;8.660;2024-01-10T04:45:01;-3.00;92.90
17341;DHT22;8788;49.930;8.660;2024-01-10T04:47:29;-2.90;92.90
17341;DHT22;8788;49.930;8.660;2024-01-10T04:49:56;-2.90;92.90
17341;DHT22;8788;49.930;8.660;2024-01-10T04:52:23;-2.90;92.90
17341;DHT22;8788;49.930;8.660;2024-01-10T04:54:50;-2.90;92.80
17341;DHT22;8788;49.930;8.660;2024-01-10T04:57:17;-2.90;92.90
17341;DHT22;8788;49.930;8.660;2024-01-10T04:59:44;-2.90;92.80
17341;DHT22;8788;49.930;8.660;2024-01-10T05:02:12;-2.80;93.00
17341;DHT22;8788;49.930;8.660;2024-01-10T05:04:39;-2.80;93.00
17341;DHT22;8788;49.930;8.660;2024-01-10T05:07:06;-2.80;93.00
17341;DHT22;8788;49.930;8.660;2024-01-10T05:09:33;-2.80;93.10
17341;DHT22;8788;49.930;8.660;2024-01-10T05:12:00;-2.80;93.00
17341;DHT22;8788;49.930;8.660;2024-01-10T05:14:27;-2.70;93.40
17341;DHT22;8788;49.930;8.660;2024-01-10T05:16:54;-2.70;93.10
17341;DHT22;8788;49.930;8.660;2024-01-10T05:19:23;-2.70;93.10
17341;DHT22;8788;49.930;8.660;2024-01-10T05:21:50;-2.70;93.00
17341;DHT22;8788;49.930;8.660;2024-01-10T05:24:17;-2.70;93.00
17341;DHT22;8788;49.930;8.660;2024-01-10T05:26:45;-2.70;92.90
17341;DHT22;8788;49.930;8.660;2024-01-10T05:29:12;-2.70;93.00
17341;DHT22;8788;49.930;8.660;2024-01-10T05:31:39;-2.70;93.00
17341;DHT22;8788;49.930;8.660;2024-01-10T05:34:06;-2.70;92.90
17341;DHT22;8788;49.930;8.660;2024-01-10T05:36:34;-2.70;93.00
17341;DHT22;8788;49.930;8.660;2024-01-10T05:39:01;-2.70;93.00
17341;DHT22;8788;49.930;8.660;2024-01-10T05:41:29;-2.70;93.10
17341;DHT22;8788;49.930;8.660;2024-01-10T05:43:56;-2.70;93.10
17341;DHT22;8788;49.930;8.660;2024-01-10T05:46:23;-2.80;93.10
17341;DHT22;8788;49.930;8.660;2024-01-10T05:48:50;-2.80;93.20
17341;DHT22;8788;49.930;8.660;2024-01-10T05:51:17;-2.80;93.20
17341;DHT22;8788;49.930;8.660;2024-01-10T05:53:45;-2.80;93.30
17341;DHT22;8788;49.930;8.660;2024-01-10T05:56:12;-2.70;93.30
17341;DHT22;8788;49.930;8.660;2024-01-10T05:58:40;-2.70;93.30
17341;DHT22;8788;49.930;8.660;2024-01-10T06:01:07;-2.70;93.20
17341;DHT22;8788;49.930;8.660;2024-01-10T06:03:35;-2.70;93.30
17341;DHT22;8788;49.930;8.660;2024-01-10T06:06:04;-2.70;93.30
17341;DHT22;8788;49.930;8.660;2024-01-10T06:08:31;-2.80;93.30
17341;DHT22;8788;49.930;8.660;2024-01-10T06:11:02;-2.80;93.30
17341;DHT22;8788;49.930;8.660;2024-01-10T06:13:31;-2.80;93.50
17341;DHT22;8788;49.930;8.660;2024-01-10T06:15:58;-2.80;93.50
17341;DHT22;8788;49.930;8.660;2024-01-10T06:18:25;-2.90;93.40
17341;DHT22;8788;49.930;8.660;2024-01-10T06:20:53;-3.00;93.40
17341;DHT22;8788;49.930;8.660;2024-01-10T06:23:20;-2.90;93.50
17341;DHT22;8788;49.930;8.660;2024-01-10T06:25:47;-2.80;93.40
17341;DHT22;8788;49.930;8.660;2024-01-10T06:28:15;-2.80;93.30
17341;DHT22;8788;49.930;8.660;2024-01-10T06:30:42;-2.80;93.30
17341;DHT22;8788;49.930;8.660;2024-01-10T06:33:09;-2.80;93.40
17341;DHT22;8788;49.930;8.660;2024-01-10T06:35:36;-2.90;93.50
17341;DHT22;8788;49.930;8.660;2024-01-10T06:38:03;-2.90;93.50
17341;DHT22;8788;49.930;8.660;2024-01-10T06:40:31;-2.90;93.60
17341;DHT22;8788;49.930;8.660;2024-01-10T06:42:58;-2.90;93.60
17341;DHT22;8788;49.930;8.660;2024-01-10T06:45:26;-3.00;93.60
17341;DHT22;8788;49.930;8.660;2024-01-10T06:47:53;-3.00;93.80
17341;DHT22;8788;49.930;8.660;2024-01-10T06:50:20;-2.90;93.80
17341;DHT22;8788;49.930;8.660;2024-01-10T06:52:48;-2.90;93.80
17341;DHT22;8788;49.930;8.660;2024-01-10T06:55:15;-2.90;93.80
17341;DHT22;8788;49.930;8.660;2024-01-10T06:57:44;-2.80;93.70
17341;DHT22;8788;49.930;8.660;2024-01-10T07:00:13;-2.80;93.70
17341;DHT22;8788;49.930;8.660;2024-01-10T07:02:41;-2.80;93.60
17341;DHT22;8788;49.930;8.660;2024-01-10T07:05:09;-2.80;93.70
17341;DHT22;8788;49.930;8.660;2024-01-10T07:07:36;-2.80;93.70
17341;DHT22;8788;49.930;8.660;2024-01-10T07:10:03;-2.80;93.80
17341;DHT22;8788;49.930;8.660;2024-01-10T07:12:33;-2.80;93.90
17341;DHT22;8788;49.930;8.660;2024-01-10T07:15:00;-2.80;93.90
17341;DHT22;8788;49.930;8.660;2024-01-10T07:17:28;-2.80;93.80
17341;DHT22;8788;49.930;8.660;2024-01-10T07:19:57;-2.70;93.90
17341;DHT22;8788;49.930;8.660;2024-01-10T07:22:24;-2.70;93.90
17341;DHT22;8788;49.930;8.660;2024-01-10T07:24:51;-2.70;94.00
17341;DHT22;8788;49.930;8.660;2024-01-10T07:27:18;-2.70;94.10
17341;DHT22;8788;49.930;8.660;2024-01-10T07:29:45;-2.70;94.10
17341;DHT22;8788;49.930;8.660;2024-01-10T07:32:12;-2.60;94.20
17341;DHT22;8788;49.930;8.660;2024-01-10T07:34:39;-2.70;94.10
17341;DHT22;8788;49.930;8.660;2024-01-10T07:37:08;-2.70;94.20
17341;DHT22;8788;49.930;8.660;2024-01-10T07:39:36;-2.70;94.30
17341;DHT22;8788;49.930;8.660;2024-01-10T07:42:04;-2.70;94.40
17341;DHT22;8788;49.930;8.660;2024-01-10T07:44:31;-2.70;94.40
17341;DHT22;8788;49.930;8.660;2024-01-10T07:46:58;-2.70;94.40
17341;DHT22;8788;49.930;8.660;2024-01-10T07:49:25;-2.70;94.50
17341;DHT22;8788;49.930;8.660;2024-01-10T07:51:52;-2.60;94.50
17341;DHT22;8788;49.930;8.660;2024-01-10T07:54:21;-2.50;94.50
17341;DHT22;8788;49.930;8.660;2024-01-10T07:56:48;-2.50;94.50
17341;DHT22;8788;49.930;8.660;2024-01-10T07:59:15;-2.40;94.60
17341;DHT22;8788;49.930;8.660;2024-01-10T08:01:53;-2.40;94.60
17341;DHT22;8788;49.930;8.660;2024-01-10T08:04:22;-2.40;94.70
17341;DHT22;8788;49.930;8.660;2024-01-10T08:06:49;-2.30;94.70
17341;DHT22;8788;49.930;8.660;2024-01-10T08:09:15;-2.30;94.70
17341;DHT22;8788;49.930;8.660;2024-01-10T08:11:46;-2.20;94.70
17341;DHT22;8788;49.930;8.660;2024-01-10T08:14:14;-2.20;94.70
17341;DHT22;8788;49.930;8.660;2024-01-10T08:16:41;-2.20;94.80
17341;DHT22;8788;49.930;8.660;2024-01-10T08:19:08;-2.10;94.80
17341;DHT22;8788;49.930;8.660;2024-01-10T08:21:35;-2.10;94.70
17341;DHT22;8788;49.930;8.660;2024-01-10T08:24:03;-2.00;94.80
17341;DHT22;8788;49.930;8.660;2024-01-10T08:26:31;-2.00;94.70
17341;DHT22;8788;49.930;8.660;2024-01-10T08:28:59;-1.90;94.90
17341;DHT22;8788;49.930;8.660;2024-01-10T08:31:26;-1.80;95.00
17341;DHT22;8788;49.930;8.660;2024-01-10T08:33:54;-1.70;95.00
17341;DHT22;8788;49.930;8.660;2024-01-10T08:36:22;-1.60;94.90
17341;DHT22;8788;49.930;8.660;2024-01-10T08:38:50;-1.50;94.90
17341;DHT22;8788;49.930;8.660;2024-01-10T08:41:17;-1.50;94.70
17341;DHT22;8788;49.930;8.660;2024-01-10T08:43:46;-1.50;94.80
17341;DHT22;8788;49.930;8.660;2024-01-10T08:46:14;-1.50;94.80
17341;DHT22;8788;49.930;8.660;2024-01-10T08:48:42;-1.50;94.70
17341;DHT22;8788;49.930;8.660;2024-01-10T08:51:09;-1.50;94.80
17341;DHT22;8788;49.930;8.660;2024-01-10T08:53:36;-1.60;94.80
17341;DHT22;8788;49.930;8.660;2024-01-10T08:56:04;-1.50;94.90
17341;DHT22;8788;49.930;8.660;2024-01-10T08:58:31;-1.30;95.00
17341;DHT22;8788;49.930;8.660;2024-01-10T09:00:58;-1.20;94.90
17341;DHT22;8788;49.930;8.660;2024-01-10T09:03:27;-1.10;94.80
17341;DHT22;8788;49.930;8.660;2024-01-10T09:05:54;-1.10;94.70
17341;DHT22;8788;49.930;8.660;2024-01-10T09:08:21;-1.00;94.70
17341;DHT22;8788;49.930;8.660;2024-01-10T09:10:48;-1.00;94.70
17341;DHT22;8788;49.930;8.660;2024-01-10T09:13:15;-1.00;94.60
17341;DHT22;8788;49.930;8.660;2024-01-10T09:15:43;-1.00;94.60
17341;DHT22;8788;49.930;8.660;2024-01-10T09:18:10;-0.90;94.80
17341;DHT22;8788;49.930;8.660;2024-01-10T09:20:38;-0.90;94.70
17341;DHT22;8788;49.930;8.660;2024-01-10T09:23:05;-0.80;94.70
17341;DHT22;8788;49.930;8.660;2024-01-10T09:25:32;-0.70;95.00
17341;DHT22;8788;49.930;8.660;2024-01-10T09:27:59;-0.70;94.60
17341;DHT22;8788;49.930;8.660;2024-01-10T09:30:27;-0.70;94.60
17341;DHT22;8788;49.930;8.660;2024-01-10T09:32:54;-0.70;94.40
17341;DHT22;8788;49.930;8.660;2024-01-10T09:35:22;-0.70;94.50
17341;DHT22;8788;49.930;8.660;2024-01-10T09:37:50;-0.60;94.60
17341;DHT22;8788;49.930;8.660;2024-01-10T09:40:19;-0.60;94.60
17341;DHT22;8788;49.930;8.660;2024-01-10T09:42:49;-0.50;94.70
17341;DHT22;8788;49.930;8.660;2024-01-10T09:45:19;-0.50;94.60
17341;DHT22;8788;49.930;8.660;2024-01-10T09:47:49;-0.50;94.30
17341;DHT22;8788;49.930;8.660;2024-01-10T09:50:19;-0.50;94.40
17341;DHT22;8788;49.930;8.660;2024-01-10T09:52:51;-0.40;94.50
17341;DHT22;8788;49.930;8.660;2024-01-10T09:55:21;-0.40;94.40
17341;DHT22;8788;49.930;8.660;2024-01-10T09:57:49;-0.40;94.40
17341;DHT22;8788;49.930;8.660;2024-01-10T10:00:16;-0.30;94.50
17341;DHT22;8788;49.930;8.660;2024-01-10T10:02:46;-0.30;94.40
17341;DHT22;8788;49.930;8.660;2024-01-10T10:05:16;-0.30;94.50
17341;DHT22;8788;49.930;8.660;2024-01-10T10:07:44;-0.30;94.50
17341;DHT22;8788;49.930;8.660;2024-01-10T10:10:12;-0.30;94.50
17341;DHT22;8788;49.930;8.660;2024-01-10T10:12:44;-0.30;94.60
17341;DHT22;8788;49.930;8.660;2024-01-10T10:15:13;-0.20;94.60
17341;DHT22;8788;49.930;8.660;2024-01-10T10:17:44;-0.20;94.30
17341;DHT22;8788;49.930;8.660;2024-01-10T10:20:14;-0.30;94.30
17341;DHT22;8788;49.930;8.660;2024-01-10T10:22:59;-0.30;94.30
17341;DHT22;8788;49.930;8.660;2024-01-10T10:25:32;-0.30;94.10
17341;DHT22;8788;49.930;8.660;2024-01-10T10:28:00;-0.30;94.30
17341;DHT22;8788;49.930;8.660;2024-01-10T10:30:27;-0.30;94.30
17341;DHT22;8788;49.930;8.660;2024-01-10T10:32:55;-0.30;94.10
17341;DHT22;8788;49.930;8.660;2024-01-10T10:35:22;-0.30;94.20
17341;DHT22;8788;49.930;8.660;2024-01-10T10:37:51;-0.30;94.10
17341;DHT22;8788;49.930;8.660;2024-01-10T10:40:19;-0.30;93.90
17341;DHT22;8788;49.930;8.660;2024-01-10T10:42:48;-0.30;94.00
17341;DHT22;8788;49.930;8.660;2024-01-10T10:45:16;-0.30;94.00
17341;DHT22;8788;49.930;8.660;2024-01-10T10:47:44;-0.20;94.10
17341;DHT22;8788;49.930;8.660;2024-01-10T10:50:13;-0.10;94.00
17341;DHT22;8788;49.930;8.660;2024-01-10T10:52:45;-0.10;94.10
17341;DHT22;8788;49.930;8.660;2024-01-10T10:55:15;0.10;94.10
17341;DHT22;8788;49.930;8.660;2024-01-10T10:57:45;0.20;94.10
17341;DHT22;8788;49.930;8.660;2024-01-10T11:00:16;0.30;94.00
17341;DHT22;8788;49.930;8.660;2024-01-10T11:02:44;0.50;94.10
17341;DHT22;8788;49.930;8.660;2024-01-10T11:05:12;0.60;94.00
17341;DHT22;8788;49.930;8.660;2024-01-10T11:07:40;0.70;93.90
17341;DHT22;8788;49.930;8.660;2024-01-10T11:10:11;0.80;93.80
17341;DHT22;8788;49.930;8.660;2024-01-10T11:12:53;0.90;93.90
17341;DHT22;8788;49.930;8.660;2024-01-10T11:15:43;1.10;93.90
17341;DHT22;8788;49.930;8.660;2024-01-10T11:18:38;1.10;93.50
17341;DHT22;8788;49.930;8.660;2024-01-10T11:21:21;1.10;93.30
17341;DHT22;8788;49.930;8.660;2024-01-10T11:23:53;1.20;93.20
17341;DHT22;8788;49.930;8.660;2024-01-10T11:26:21;1.20;93.20
17341;DHT22;8788;49.930;8.660;2024-01-10T11:28:48;1.30;93.20
17341;DHT22;8788;49.930;8.660;2024-01-10T11:31:27;1.30;92.90
17341;DHT22;8788;49.930;8.660;2024-01-10T11:33:56;1.30;92.70
17341;DHT22;8788;49.930;8.660;2024-01-10T11:36:23;1.40;92.70
17341;DHT22;8788;49.930;8.660;2024-01-10T11:38:57;1.50;92.50
17341;DHT22;8788;49.930;8.660;2024-01-10T11:41:27;1.60;92.40
17341;DHT22;8788;49.930;8.660;2024-01-10T11:44:25;1.70;92.20
17341;DHT22;8788;49.930;8.660;2024-01-10T11:46:54;2.10;92.20
17341;DHT22;8788;49.930;8.660;2024-01-10T11:49:23;2.00;91.50
17341;DHT22;8788;49.930;8.660;2024-01-10T11:51:52;1.80;91.20
17341;DHT22;8788;49.930;8.660;2024-01-10T11:54:39;1.70;91.30
17341;DHT22;8788;49.930;8.660;2024-01-10T11:57:14;1.80;91.50
17341;DHT22;8788;49.930;8.660;2024-01-10T11:59:45;1.90;91.70
17341;DHT22;8788;49.930;8.660;2024-01-10T12:02:15;2.00;91.60
17341;DHT22;8788;49.930;8.660;2024-01-10T12:04:43;2.00;91.40
17341;DHT22;8788;49.930;8.660;2024-01-10T12:07:11;2.10;90.90
17341;DHT22;8788;49.930;8.660;2024-01-10T12:09:39;2.10;90.60
17341;DHT22;8788;49.930;8.660;2024-01-10T12:12:07;2.00;90.40
17341;DHT22;8788;49.930;8.660;2024-01-10T12:14:34;2.10;90.50
17341;DHT22;8788;49.930;8.660;2024-01-10T12:17:02;2.40;90.60
17341;DHT22;8788;49.930;8.660;2024-01-10T12:19:32;2.80;90.10
17341;DHT22;8788;49.930;8.660;2024-01-10T12:22:00;3.20;89.80
17341;DHT22;8788;49.930;8.660;2024-01-10T12:24:28;4.70;88.30
17341;DHT22;8788;49.930;8.660;2024-01-10T12:26:56;5.70;86.00
17341;DHT22;8788;49.930;8.660;2024-01-10T12:29:23;6.20;83.90
17341;DHT22;8788;49.930;8.660;2024-01-10T12:31:51;6.60;81.90
17341;DHT22;8788;49.930;8.660;2024-01-10T12:34:20;6.70;79.90
17341;DHT22;8788;49.930;8.660;2024-01-10T12:36:49;6.70;78.90
17341;DHT22;8788;49.930;8.660;2024-01-10T12:39:16;6.90;78.90
17341;DHT22;8788;49.930;8.660;2024-01-10T12:41:43;6.90;78.80
17341;DHT22;8788;49.930;8.660;2024-01-10T12:44:11;7.00;78.60
17341;DHT22;8788;49.930;8.660;2024-01-10T12:46:50;6.70;77.00
17341;DHT22;8788;49.930;8.660;2024-01-10T12:49:18;6.30;78.00
17341;DHT22;8788;49.930;8.660;2024-01-10T12:51:47;6.20;78.90
17341;DHT22;8788;49.930;8.660;2024-01-10T12:54:16;6.10;79.20
17341;DHT22;8788;49.930;8.660;2024-01-10T12:56:43;6.10;79.40
17341;DHT22;8788;49.930;8.660;2024-01-10T12:59:11;5.90;79.00
17341;DHT22;8788;49.930;8.660;2024-01-10T13:01:39;5.50;79.20
17341;DHT22;8788;49.930;8.660;2024-01-10T13:04:07;5.30;79.40
17341;DHT22;8788;49.930;8.660;2024-01-10T13:06:34;5.10;80.10
17341;DHT22;8788;49.930;8.660;2024-01-10T13:09:01;5.10;80.30
17341;DHT22;8788;49.930;8.660;2024-01-10T13:11:31;4.90;80.00
17341;DHT22;8788;49.930;8.660;2024-01-10T13:13:58;4.80;80.60
17341;DHT22;8788;49.930;8.660;2024-01-10T13:16:26;4.80;81.60
17341;DHT22;8788;49.930;8.660;2024-01-10T13:18:53;4.80;80.70
17341;DHT22;8788;49.930;8.660;2024-01-10T13:21:22;4.70;80.60
17341;DHT22;8788;49.930;8.660;2024-01-10T13:23:50;4.70;81.30
17341;DHT22;8788;49.930;8.660;2024-01-10T13:26:17;4.90;81.90
17341;DHT22;8788;49.930;8.660;2024-01-10T13:28:45;5.00;81.90
17341;DHT22;8788;49.930;8.660;2024-01-10T13:31:12;5.10;82.00
17341;DHT22;8788;49.930;8.660;2024-01-10T13:33:41;5.20;81.20
17341;DHT22;8788;49.930;8.660;2024-01-10T13:36:08;5.20;81.40
17341;DHT22;8788;49.930;8.660;2024-01-10T13:38:35;5.30;80.90
17341;DHT22;8788;49.930;8.660;2024-01-10T13:41:02;5.10;80.00
17341;DHT22;8788;49.930;8.660;2024-01-10T13:43:31;4.90;80.30
17341;DHT22;8788;49.930;8.660;2024-01-10T13:45:59;4.90;80.90
17341;DHT22;8788;49.930;8.660;2024-01-10T13:48:27;5.00;81.30
17341;DHT22;8788;49.930;8.660;2024-01-10T13:50:54;5.00;79.80
17341;DHT22;8788;49.930;8.660;2024-01-10T13:53:21;5.20;81.00
17341;DHT22;8788;49.930;8.660;2024-01-10T13:55:48;5.50;80.70
17341;DHT22;8788;49.930;8.660;2024-01-10T13:58:16;5.90;80.90
17341;DHT22;8788;49.930;8.660;2024-01-10T14:00:44;6.70;81.50
17341;DHT22;8788;49.930;8.660;2024-01-10T14:03:13;8.80;80.20
17341;DHT22;8788;49.930;8.660;2024-01-10T14:05:41;13.00;72.00
17341;DHT22;8788;49.930;8.660;2024-01-10T14:08:09;16.10;63.00
17341;DHT22;8788;49.930;8.660;2024-01-10T14:10:36;17.60;57.10
17341;DHT22;8788;49.930;8.660;2024-01-10T14:13:06;18.90;53.70
17341;DHT22;8788;49.930;8.660;2024-01-10T14:15:33;19.90;51.00
17341;DHT22;8788;49.930;8.660;2024-01-10T14:18:00;20.10;48.70
17341;DHT22;8788;49.930;8.660;2024-01-10T14:20:28;20.50;47.30
17341;DHT22;8788;49.930;8.660;2024-01-10T14:22:55;20.00;45.80
17341;DHT22;8788;49.930;8.660;2024-01-10T14:25:22;20.20;46.30
17341;DHT22;8788;49.930;8.660;2024-01-10T14:27:49;19.60;44.50
17341;DHT22;8788;49.930;8.660;2024-01-10T14:30:17;18.90;45.40
17341;DHT22;8788;49.930;8.660;2024-01-10T14:32:45;18.80;46.20
17341;DHT22;8788;49.930;8.660;2024-01-10T14:35:13;18.90;46.10
17341;DHT22;8788;49.930;8.660;2024-01-10T14:37:41;17.70;45.60
17341;DHT22;8788;49.930;8.660;2024-01-10T14:40:10;15.80;47.00
17341;DHT22;8788;49.930;8.660;2024-01-10T14:42:37;14.00;48.40
17341;DHT22;8788;49.930;8.660;2024-01-10T14:45:05;11.20;49.80
17341;DHT22;8788;49.930;8.660;2024-01-10T14:47:32;8.80;53.00
17341;DHT22;8788;49.930;8.660;2024-01-10T14:49:59;7.20;56.00
17341;DHT22;8788;49.930;8.660;2024-01-10T14:52:26;6.20;58.20
17341;DHT22;8788;49.930;8.660;2024-01-10T14:54:54;5.40;59.70
17341;DHT22;8788;49.930;8.660;2024-01-10T14:57:21;5.10;61.20
17341;DHT22;8788;49.930;8.660;2024-01-10T14:59:48;4.70;61.90
17341;DHT22;8788;49.930;8.660;2024-01-10T15:02:16;4.30;62.60
17341;DHT22;8788;49.930;8.660;2024-01-10T15:04:44;4.00;63.60
17341;DHT22;8788;49.930;8.660;2024-01-10T15:07:12;3.80;65.20
17341;DHT22;8788;49.930;8.660;2024-01-10T15:09:42;3.60;65.00
17341;DHT22;8788;49.930;8.660;2024-01-10T15:12:10;3.50;65.70
17341;DHT22;8788;49.930;8.660;2024-01-10T15:14:38;3.40;66.20
17341;DHT22;8788;49.930;8.660;2024-01-10T15:17:05;3.30;66.60
17341;DHT22;8788;49.930;8.660;2024-01-10T15:19:33;3.20;67.10
17341;DHT22;8788;49.930;8.660;2024-01-10T15:22:01;3.10;67.50
17341;DHT22;8788;49.930;8.660;2024-01-10T15:24:28;3.00;68.70
17341;DHT22;8788;49.930;8.660;2024-01-10T15:26:55;2.90;68.20
17341;DHT22;8788;49.930;8.660;2024-01-10T15:29:28;2.80;68.50
17341;DHT22;8788;49.930;8.660;2024-01-10T15:31:55;2.70;69.00
17341;DHT22;8788;49.930;8.660;2024-01-10T15:34:22;2.60;69.30
17341;DHT22;8788;49.930;8.660;2024-01-10T15:36:51;2.50;69.60
17341;DHT22;8788;49.930;8.660;2024-01-10T15:39:18;2.40;70.00
17341;DHT22;8788;49.930;8.660;2024-01-10T15:41:47;2.30;70.30
17341;DHT22;8788;49.930;8.660;2024-01-10T15:44:14;2.30;70.70
17341;DHT22;8788;49.930;8.660;2024-01-10T15:46:43;2.20;71.70
17341;DHT22;8788;49.930;8.660;2024-01-10T15:49:10;2.10;71.30
17341;DHT22;8788;49.930;8.660;2024-01-10T15:51:38;2.10;71.70
17341;DHT22;8788;49.930;8.660;2024-01-10T15:54:05;2.00;71.90
17341;DHT22;8788;49.930;8.660;2024-01-10T15:56:32;1.90;72.10